sensor_id;sensor_type;location;lat;lon;timestamp;temperature;humidity
43524;DHT22;29120;52.006;6.020;2023-04-01T00:00:51;10.10;99.90
43524;DHT22;29120;52.006;6.020;2023-04-01T00:03:17;10.10;99.90
43524;DHT22;29120;52.006;6.020;2023-04-01T00:05:43;10.10;99.90
43524;DHT22;29120;52.006;6.020;2023-04-01T00:08:08;10.10;99.90
43524;DHT22;29120;52.006;6.020;2023-04-01T00:10:34;10.10;99.90
43524;DHT22;29120;52.006;6.020;2023-04-01T00:12:59;10.20;99.90
43524;DHT22;29120;52.006;6.020;2023-04-01T00:15:25;10.10;99.90
43524;DHT22;29120;52.006;6.020;2023-04-01T00:17:51;10.10;99.90
43524;DHT22;29120;52.006;6.020;2023-04-01T00:20:16;10.10;99.90
43524;DHT22;29120;52.006;6.020;2023-04-01T00:22:42;10.10;99.90
43524;DHT22;29120;52.006;6.020;2023-04-01T00:25:07;10.10;99.90
43524;DHT22;29120;52.006;6.020;2023-04-01T00:27:33;10.10;99.90
43524;DHT22;29120;52.006;6.020;2023-04-01T00:29:59;10.10;99.90
43524;DHT22;29120;52.006;6.020;2023-04-01T00:32:24;10.10;99.90
43524;DHT22;29120;52.006;6.020;2023-04-01T00:34:51;10.20;99.90
43524;DHT22;29120;52.006;6.020;2023-04-01T00:37:17;10.10;99.90
43524;DHT22;29120;52.006;6.020;2023-04-01T00:39:42;10.10;99.90
43524;DHT22;29120;52.006;6.020;2023-04-01T00:42:08;10.10;99.90
43524;DHT22;29120;52.006;6.020;2023-04-01T00:44:34;10.20;99.90
43524;DHT22;29120;52.006;6.020;2023-04-01T00:47:00;10.20;99.90
43524;DHT22;29120;52.006;6.020;2023-04-01T00:49:27;10.20;99.90
43524;DHT22;29120;52.006;6.020;2023-04-01T00:51:54;10.20;99.90
43524;DHT22;29120;52.006;6.020;2023-04-01T00:54:21;10.20;99.90
43524;DHT22;29120;52.006;6.020;2023-04-01T00:56:48;10.20;99.90
43524;DHT22;29120;52.006;6.020;2023-04-01T00:59:29;10.20;99.90
43524;DHT22;29120;52.006;6.020;2023-04-01T01:01:55;10.20;99.90
43524;DHT22;29120;52.006;6.020;2023-04-01T01:06:50;10.30;99.90
43524;DHT22;29120;52.006;6.020;2023-04-01T01:11:48;10.30;99.90
43524;DHT22;29120;52.006;6.020;2023-04-01T01:14:19;10.30;99.90
43524;DHT22;29120;52.006;6.020;2023-04-01T01:16:49;10.30;99.90
43524;DHT22;29120;52.006;6.020;2023-04-01T01:27:14;10.30;99.90
43524;DHT22;29120;52.006;6.020;2023-04-01T01:37:13;10.40;99.90
43524;DHT22;29120;52.006;6.020;2023-04-01T01:39:39;10.30;99.90
43524;DHT22;29120;52.006;6.020;2023-04-01T01:42:07;10.40;99.90
43524;DHT22;29120;52.006;6.020;2023-04-01T01:44:35;10.30;99.90
43524;DHT22;29120;52.006;6.020;2023-04-01T01:47:02;10.30;99.90
43524;DHT22;29120;52.006;6.020;2023-04-01T01:49:27;10.40;99.90
43524;DHT22;29120;52.006;6.020;2023-04-01T01:51:55;10.40;99.90
43524;DHT22;29120;52.006;6.020;2023-04-01T01:54:21;10.40;99.90
43524;DHT22;29120;52.006;6.020;2023-04-01T01:56:49;10.40;99.90
43524;DHT22;29120;52.006;6.020;2023-04-01T01:59:16;10.30;99.90
43524;DHT22;29120;52.006;6.020;2023-04-01T02:01:43;10.30;99.90
43524;DHT22;29120;52.006;6.020;2023-04-01T02:04:09;10.40;99.90
43524;DHT22;29120;52.006;6.020;2023-04-01T02:06:37;10.40;99.90
43524;DHT22;29120;52.006;6.020;2023-04-01T02:09:04;10.40;99.90
43524;DHT22;29120;52.006;6.020;2023-04-01T02:11:34;10.40;99.90
43524;DHT22;29120;52.006;6.020;2023-04-01T02:16:31;10.40;99.90
43524;DHT22;29120;52.006;6.020;2023-04-01T02:18:57;10.40;99.90
43524;DHT22;29120;52.006;6.020;2023-04-01T02:21:24;10.30;99.90
43524;DHT22;29120;52.006;6.020;2023-04-01T02:23:50;10.40;99.90
43524;DHT22;29120;52.006;6.020;2023-04-01T02:26:17;10.30;99.90
43524;DHT22;29120;52.006;6.020;2023-04-01T02:28:43;10.30;99.90
43524;DHT22;29120;52.006;6.020;2023-04-01T02:31:10;10.30;99.90
43524;DHT22;29120;52.006;6.020;2023-04-01T02:33:36;10.40;99.90
43524;DHT22;29120;52.006;6.020;2023-04-01T02:36:03;10.30;99.90
43524;DHT22;29120;52.006;6.020;2023-04-01T02:38:28;10.30;99.90
43524;DHT22;29120;52.006;6.020;2023-04-01T02:40:58;10.30;99.90
43524;DHT22;29120;52.006;6.020;2023-04-01T02:43:24;10.40;99.90
43524;DHT22;29120;52.006;6.020;2023-04-01T02:45:50;10.40;99.90
43524;DHT22;29120;52.006;6.020;2023-04-01T02:48:15;10.40;99.90
43524;DHT22;29120;52.006;6.020;2023-04-01T02:50:41;10.40;99.90
43524;DHT22;29120;52.006;6.020;2023-04-01T02:53:06;10.30;99.90
43524;DHT22;29120;52.006;6.020;2023-04-01T02:55:32;10.30;99.90
43524;DHT22;29120;52.006;6.020;2023-04-01T02:57:58;10.30;99.90
43524;DHT22;29120;52.006;6.020;2023-04-01T03:00:24;10.30;99.90
43524;DHT22;29120;52.006;6.020;2023-04-01T03:02:49;10.30;99.90
43524;DHT22;29120;52.006;6.020;2023-04-01T03:05:15;10.30;99.90
43524;DHT22;29120;52.006;6.020;2023-04-01T03:07:40;10.30;99.90
43524;DHT22;29120;52.006;6.020;2023-04-01T03:10:06;10.30;99.90
43524;DHT22;29120;52.006;6.020;2023-04-01T03:12:32;10.30;99.90
43524;DHT22;29120;52.006;6.020;2023-04-01T03:14:57;10.30;99.90
43524;DHT22;29120;52.006;6.020;2023-04-01T03:17:23;10.30;99.90
43524;DHT22;29120;52.006;6.020;2023-04-01T03:19:48;10.30;99.90
43524;DHT22;29120;52.006;6.020;2023-04-01T03:22:14;10.20;99.90
43524;DHT22;29120;52.006;6.020;2023-04-01T03:24:40;10.20;99.90
43524;DHT22;29120;52.006;6.020;2023-04-01T03:27:05;10.20;99.90
43524;DHT22;29120;52.006;6.020;2023-04-01T03:29:31;10.20;99.90
43524;DHT22;29120;52.006;6.020;2023-04-01T03:31:56;10.10;99.90
43524;DHT22;29120;52.006;6.020;2023-04-01T03:34:24;10.10;99.90
43524;DHT22;29120;52.006;6.020;2023-04-01T03:36:51;10.10;99.90
43524;DHT22;29120;52.006;6.020;2023-04-01T03:39:16;10.10;99.90
43524;DHT22;29120;52.006;6.020;2023-04-01T03:41:47;10.10;99.90
43524;DHT22;29120;52.006;6.020;2023-04-01T03:44:12;10.20;99.90
43524;DHT22;29120;52.006;6.020;2023-04-01T03:46:38;10.20;99.90
43524;DHT22;29120;52.006;6.020;2023-04-01T03:49:06;10.20;99.90
43524;DHT22;29120;52.006;6.020;2023-04-01T03:51:37;10.20;99.90
43524;DHT22;29120;52.006;6.020;2023-04-01T03:54:02;10.20;99.90
43524;DHT22;29120;52.006;6.020;2023-04-01T03:56:27;10.20;99.90
43524;DHT22;29120;52.006;6.020;2023-04-01T03:58:53;10.20;99.90
43524;DHT22;29120;52.006;6.020;2023-04-01T04:01:19;10.20;99.90
43524;DHT22;29120;52.006;6.020;2023-04-01T04:03:46;10.20;99.90
43524;DHT22;29120;52.006;6.020;2023-04-01T04:06:12;10.20;99.90
43524;DHT22;29120;52.006;6.020;2023-04-01T04:08:38;10.10;99.90
43524;DHT22;29120;52.006;6.020;2023-04-01T04:11:04;10.10;99.90
43524;DHT22;29120;52.006;6.020;2023-04-01T04:13:29;10.10;99.90
43524;DHT22;29120;52.006;6.020;2023-04-01T04:15:55;10.10;99.90
43524;DHT22;29120;52.006;6.020;2023-04-01T04:18:20;10.10;99.90
43524;DHT22;29120;52.006;6.020;2023-04-01T04:20:46;10.10;99.90
43524;DHT22;29120;52.006;6.020;2023-04-01T04:23:16;10.00;99.90
43524;DHT22;29120;52.006;6.020;2023-04-01T04:25:52;10.10;99.90
43524;DHT22;29120;52.006;6.020;2023-04-01T04:28:17;10.10;99.90
43524;DHT22;29120;52.006;6.020;2023-04-01T04:30:43;10.10;99.90
43524;DHT22;29120;52.006;6.020;2023-04-01T04:33:08;10.10;99.90
43524;DHT22;29120;52.006;6.020;2023-04-01T04:35:34;10.00;99.90
43524;DHT22;29120;52.006;6.020;2023-04-01T04:37:59;10.00;99.90
43524;DHT22;29120;52.006;6.020;2023-04-01T04:40:25;10.00;99.90
43524;DHT22;29120;52.006;6.020;2023-04-01T04:42:50;10.00;99.90
43524;DHT22;29120;52.006;6.020;2023-04-01T04:45:16;10.00;99.90
43524;DHT22;29120;52.006;6.020;2023-04-01T04:47:41;10.10;99.90
43524;DHT22;29120;52.006;6.020;2023-04-01T04:50:07;10.00;99.90
43524;DHT22;29120;52.006;6.020;2023-04-01T04:52:32;10.10;99.90
43524;DHT22;29120;52.006;6.020;2023-04-01T04:54:58;10.10;99.90
43524;DHT22;29120;52.006;6.020;2023-04-01T04:57:23;10.10;99.90
43524;DHT22;29120;52.006;6.020;2023-04-01T04:59:49;10.10;99.90
43524;DHT22;29120;52.006;6.020;2023-04-01T05:02:14;10.00;99.90
43524;DHT22;29120;52.006;6.020;2023-04-01T05:04:40;10.00;99.90
43524;DHT22;29120;52.006;6.020;2023-04-01T05:07:05;10.10;99.90
43524;DHT22;29120;52.006;6.020;2023-04-01T05:09:31;10.10;99.90
43524;DHT22;29120;52.006;6.020;2023-04-01T05:11:57;10.10;99.90
43524;DHT22;29120;52.006;6.020;2023-04-01T05:14:23;10.10;99.90
43524;DHT22;29120;52.006;6.020;2023-04-01T05:16:48;10.10;99.90
43524;DHT22;29120;52.006;6.020;2023-04-01T05:19:14;10.10;99.90
43524;DHT22;29120;52.006;6.020;2023-04-01T05:21:40;10.10;99.90
43524;DHT22;29120;52.006;6.020;2023-04-01T05:24:07;10.10;99.90
43524;DHT22;29120;52.006;6.020;2023-04-01T05:26:33;10.10;99.90
43524;DHT22;29120;52.006;6.020;2023-04-01T05:28:58;10.20;99.90
43524;DHT22;29120;52.006;6.020;2023-04-01T05:31:24;10.20;99.90
43524;DHT22;29120;52.006;6.020;2023-04-01T05:33:49;10.20;99.90
43524;DHT22;29120;52.006;6.020;2023-04-01T05:36:15;10.30;99.90
43524;DHT22;29120;52.006;6.020;2023-04-01T05:38:41;10.30;99.90
43524;DHT22;29120;52.006;6.020;2023-04-01T05:41:07;10.30;99.90
43524;DHT22;29120;52.006;6.020;2023-04-01T05:43:35;10.30;99.90
43524;DHT22;29120;52.006;6.020;2023-04-01T05:46:01;10.30;99.90
43524;DHT22;29120;52.006;6.020;2023-04-01T05:48:26;10.40;99.90
43524;DHT22;29120;52.006;6.020;2023-04-01T05:50:52;10.40;99.90
43524;DHT22;29120;52.006;6.020;2023-04-01T05:53:17;10.40;99.90
43524;DHT22;29120;52.006;6.020;2023-04-01T05:55:43;10.40;99.90
43524;DHT22;29120;52.006;6.020;2023-04-01T05:58:08;10.50;99.90
43524;DHT22;29120;52.006;6.020;2023-04-01T06:00:33;10.50;99.90
43524;DHT22;29120;52.006;6.020;2023-04-01T06:02:59;10.50;99.90
43524;DHT22;29120;52.006;6.020;2023-04-01T06:05:27;10.50;99.90
43524;DHT22;29120;52.006;6.020;2023-04-01T06:07:55;10.50;99.90
43524;DHT22;29120;52.006;6.020;2023-04-01T06:10:22;10.60;99.90
43524;DHT22;29120;52.006;6.020;2023-04-01T06:13:07;10.60;99.90
43524;DHT22;29120;52.006;6.020;2023-04-01T06:15:39;10.60;99.90
43524;DHT22;29120;52.006;6.020;2023-04-01T06:20:54;10.60;99.90
43524;DHT22;29120;52.006;6.020;2023-04-01T06:31:33;10.60;99.90
43524;DHT22;29120;52.006;6.020;2023-04-01T06:39:37;10.70;99.90
43524;DHT22;29120;52.006;6.020;2023-04-01T06:42:14;10.80;99.90
43524;DHT22;29120;52.006;6.020;2023-04-01T06:49:56;10.90;99.90
43524;DHT22;29120;52.006;6.020;2023-04-01T06:57:45;11.00;99.90
43524;DHT22;29120;52.006;6.020;2023-04-01T07:00:31;11.10;99.90
43524;DHT22;29120;52.006;6.020;2023-04-01T07:05:23;11.20;99.90
43524;DHT22;29120;52.006;6.020;2023-04-01T07:07:50;11.20;99.90
43524;DHT22;29120;52.006;6.020;2023-04-01T07:12:54;11.30;99.90
43524;DHT22;29120;52.006;6.020;2023-04-01T07:15:21;11.30;99.90
43524;DHT22;29120;52.006;6.020;2023-04-01T07:17:48;11.30;99.90
43524;DHT22;29120;52.006;6.020;2023-04-01T07:20:22;11.30;99.90
43524;DHT22;29120;52.006;6.020;2023-04-01T07:22:49;11.40;99.90
43524;DHT22;29120;52.006;6.020;2023-04-01T07:25:27;11.40;99.90
43524;DHT22;29120;52.006;6.020;2023-04-01T07:28:01;11.50;99.90
43524;DHT22;29120;52.006;6.020;2023-04-01T07:30:28;11.60;99.90
43524;DHT22;29120;52.006;6.020;2023-04-01T07:33:04;11.70;99.90
43524;DHT22;29120;52.006;6.020;2023-04-01T07:35:38;11.80;99.90
43524;DHT22;29120;52.006;6.020;2023-04-01T07:48:22;12.20;99.90
43524;DHT22;29120;52.006;6.020;2023-04-01T07:50:59;12.30;99.90
43524;DHT22;29120;52.006;6.020;2023-04-01T07:53:42;12.30;99.90
43524;DHT22;29120;52.006;6.020;2023-04-01T07:56:10;12.40;99.90
43524;DHT22;29120;52.006;6.020;2023-04-01T08:01:07;12.60;99.90
43524;DHT22;29120;52.006;6.020;2023-04-01T08:03:47;12.60;99.90
43524;DHT22;29120;52.006;6.020;2023-04-01T08:14:17;12.50;99.90
43524;DHT22;29120;52.006;6.020;2023-04-01T08:16:52;12.60;99.90
43524;DHT22;29120;52.006;6.020;2023-04-01T08:22:14;12.50;99.90
43524;DHT22;29120;52.006;6.020;2023-04-01T08:24:41;12.50;99.90
43524;DHT22;29120;52.006;6.020;2023-04-01T08:27:24;12.50;99.90
43524;DHT22;29120;52.006;6.020;2023-04-01T08:29:54;12.40;99.90
43524;DHT22;29120;52.006;6.020;2023-04-01T08:32:25;12.50;99.90
43524;DHT22;29120;52.006;6.020;2023-04-01T08:34:55;12.50;99.90
43524;DHT22;29120;52.006;6.020;2023-04-01T08:37:32;12.60;99.90
43524;DHT22;29120;52.006;6.020;2023-04-01T08:40:02;12.60;99.90
43524;DHT22;29120;52.006;6.020;2023-04-01T08:47:50;12.70;99.90
43524;DHT22;29120;52.006;6.020;2023-04-01T09:21:41;12.80;99.90
43524;DHT22;29120;52.006;6.020;2023-04-01T09:37:19;12.70;99.90
43524;DHT22;29120;52.006;6.020;2023-04-01T09:39:49;12.70;99.90
43524;DHT22;29120;52.006;6.020;2023-04-01T09:42:34;12.70;99.90
43524;DHT22;29120;52.006;6.020;2023-04-01T09:47:43;12.70;99.90
43524;DHT22;29120;52.006;6.020;2023-04-01T09:52:44;12.70;99.90
43524;DHT22;29120;52.006;6.020;2023-04-01T09:55:39;12.60;99.90
43524;DHT22;29120;52.006;6.020;2023-04-01T10:06:10;12.30;99.90
43524;DHT22;29120;52.006;6.020;2023-04-01T10:13:48;12.20;99.90
43524;DHT22;29120;52.006;6.020;2023-04-01T10:27:10;12.30;99.90
43524;DHT22;29120;52.006;6.020;2023-04-01T10:40:17;12.50;99.90
43524;DHT22;29120;52.006;6.020;2023-04-01T10:45:38;12.60;99.90
43524;DHT22;29120;52.006;6.020;2023-04-01T10:48:12;12.70;99.90
43524;DHT22;29120;52.006;6.020;2023-04-01T10:59:15;12.90;99.90
43524;DHT22;29120;52.006;6.020;2023-04-01T11:04:20;12.80;99.90
43524;DHT22;29120;52.006;6.020;2023-04-01T11:12:09;12.70;99.90
43524;DHT22;29120;52.006;6.020;2023-04-01T11:17:27;12.60;99.90
43524;DHT22;29120;52.006;6.020;2023-04-01T11:22:36;12.50;99.90
43524;DHT22;29120;52.006;6.020;2023-04-01T11:25:17;12.50;99.90
43524;DHT22;29120;52.006;6.020;2023-04-01T11:30:22;12.50;99.90
43524;DHT22;29120;52.006;6.020;2023-04-01T11:40:32;12.50;99.90
43524;DHT22;29120;52.006;6.020;2023-04-01T11:43:08;12.40;99.90
43524;DHT22;29120;52.006;6.020;2023-04-01T11:48:23;12.40;99.90
43524;DHT22;29120;52.006;6.020;2023-04-01T11:53:22;12.30;99.90
43524;DHT22;29120;52.006;6.020;2023-04-01T11:58:36;12.40;99.90
43524;DHT22;29120;52.006;6.020;2023-04-01T12:01:26;12.50;99.90
43524;DHT22;29120;52.006;6.020;2023-04-01T12:04:11;12.60;99.90
43524;DHT22;29120;52.006;6.020;2023-04-01T12:06:48;12.70;99.90
43524;DHT22;29120;52.006;6.020;2023-04-01T12:09:30;12.80;99.90
43524;DHT22;29120;52.006;6.020;2023-04-01T12:17:31;12.90;99.90
43524;DHT22;29120;52.006;6.020;2023-04-01T12:22:34;13.10;99.90
43524;DHT22;29120;52.006;6.020;2023-04-01T12:32:44;13.40;99.90
43524;DHT22;29120;52.006;6.020;2023-04-01T12:35:16;13.40;99.90
43524;DHT22;29120;52.006;6.020;2023-04-01T12:45:44;13.30;99.90
43524;DHT22;29120;52.006;6.020;2023-04-01T12:48:19;13.20;99.90
43524;DHT22;29120;52.006;6.020;2023-04-01T12:53:35;13.10;99.90
43524;DHT22;29120;52.006;6.020;2023-04-01T12:56:07;13.10;99.90
43524;DHT22;29120;52.006;6.020;2023-04-01T13:06:52;13.30;99.90
43524;DHT22;29120;52.006;6.020;2023-04-01T13:09:29;13.30;99.90
43524;DHT22;29120;52.006;6.020;2023-04-01T13:19:53;13.70;99.90
43524;DHT22;29120;52.006;6.020;2023-04-01T13:25:06;14.00;99.90
43524;DHT22;29120;52.006;6.020;2023-04-01T13:27:45;14.10;99.90
43524;DHT22;29120;52.006;6.020;2023-04-01T13:30:24;14.00;99.90
43524;DHT22;29120;52.006;6.020;2023-04-01T13:32:55;13.80;99.90
43524;DHT22;29120;52.006;6.020;2023-04-01T13:40:43;13.30;99.90
43524;DHT22;29120;52.006;6.020;2023-04-01T13:56:05;12.70;99.90
43524;DHT22;29120;52.006;6.020;2023-04-01T14:03:54;12.60;99.90
43524;DHT22;29120;52.006;6.020;2023-04-01T14:14:14;12.60;99.90
43524;DHT22;29120;52.006;6.020;2023-04-01T14:30:14;12.80;99.90
43524;DHT22;29120;52.006;6.020;2023-04-01T14:32:48;12.70;99.90
43524;DHT22;29120;52.006;6.020;2023-04-01T14:37:58;12.80;99.90
43524;DHT22;29120;52.006;6.020;2023-04-01T14:40:28;12.70;99.90
43524;DHT22;29120;52.006;6.020;2023-04-01T14:48:00;13.00;99.90
43524;DHT22;29120;52.006;6.020;2023-04-01T14:50:40;13.00;99.90
43524;DHT22;29120;52.006;6.020;2023-04-01T14:55:54;13.10;99.90
43524;DHT22;29120;52.006;6.020;2023-04-01T14:58:21;13.00;99.90
43524;DHT22;29120;52.006;6.020;2023-04-01T15:00:58;13.10;99.90
43524;DHT22;29120;52.006;6.020;2023-04-01T15:03:29;13.10;99.90
43524;DHT22;29120;52.006;6.020;2023-04-01T15:30:06;12.70;99.90
43524;DHT22;29120;52.006;6.020;2023-04-01T15:35:18;12.70;99.90
43524;DHT22;29120;52.006;6.020;2023-04-01T15:40:24;12.60;99.90
43524;DHT22;29120;52.006;6.020;2023-04-01T15:45:39;12.60;99.90
43524;DHT22;29120;52.006;6.020;2023-04-01T15:48:13;12.50;99.90
43524;DHT22;29120;52.006;6.020;2023-04-01T15:55:44;12.50;99.90
43524;DHT22;29120;52.006;6.020;2023-04-01T16:01:07;12.40;99.90
43524;DHT22;29120;52.006;6.020;2023-04-01T16:06:13;12.30;99.90
43524;DHT22;29120;52.006;6.020;2023-04-01T16:13:53;12.30;99.90
43524;DHT22;29120;52.006;6.020;2023-04-01T16:16:36;12.20;99.90
43524;DHT22;29120;52.006;6.020;2023-04-01T16:26:39;12.10;99.90
43524;DHT22;29120;52.006;6.020;2023-04-01T16:29:12;12.10;99.90
43524;DHT22;29120;52.006;6.020;2023-04-01T16:31:44;12.00;99.90
43524;DHT22;29120;52.006;6.020;2023-04-01T16:41:38;11.80;99.90
43524;DHT22;29120;52.006;6.020;2023-04-01T16:44:27;11.70;99.90
43524;DHT22;29120;52.006;6.020;2023-04-01T16:46:53;11.70;99.90
43524;DHT22;29120;52.006;6.020;2023-04-01T16:57:11;11.40;99.90
43524;DHT22;29120;52.006;6.020;2023-04-01T17:04:45;11.30;99.90
43524;DHT22;29120;52.006;6.020;2023-04-01T17:07:35;11.30;99.90
43524;DHT22;29120;52.006;6.020;2023-04-01T17:20:19;11.10;99.90
43524;DHT22;29120;52.006;6.020;2023-04-01T17:22:51;11.10;99.90
43524;DHT22;29120;52.006;6.020;2023-04-01T17:35:49;11.00;99.90
43524;DHT22;29120;52.006;6.020;2023-04-01T17:38:20;11.00;99.90
43524;DHT22;29120;52.006;6.020;2023-04-01T17:43:37;11.00;99.90
43524;DHT22;29120;52.006;6.020;2023-04-01T17:51:40;10.80;99.90
43524;DHT22;29120;52.006;6.020;2023-04-01T17:59:44;10.70;99.90
43524;DHT22;29120;52.006;6.020;2023-04-01T18:07:31;10.50;99.90
43524;DHT22;29120;52.006;6.020;2023-04-01T18:15:40;10.50;99.90
43524;DHT22;29120;52.006;6.020;2023-04-01T18:18:11;10.40;99.90
43524;DHT22;29120;52.006;6.020;2023-04-01T18:20:43;10.40;99.90
43524;DHT22;29120;52.006;6.020;2023-04-01T18:23:20;10.30;99.90
43524;DHT22;29120;52.006;6.020;2023-04-01T18:25:47;10.30;99.90
43524;DHT22;29120;52.006;6.020;2023-04-01T18:33:31;10.20;99.90
43524;DHT22;29120;52.006;6.020;2023-04-01T18:41:13;10.20;99.90
43524;DHT22;29120;52.006;6.020;2023-04-01T18:49:07;10.10;99.90
43524;DHT22;29120;52.006;6.020;2023-04-01T18:51:39;10.00;99.90
43524;DHT22;29120;52.006;6.020;2023-04-01T18:56:48;10.00;99.90
43524;DHT22;29120;52.006;6.020;2023-04-01T18:59:28;10.00;99.90
43524;DHT22;29120;52.006;6.020;2023-04-01T19:04:36;10.00;99.90
43524;DHT22;29120;52.006;6.020;2023-04-01T19:09:45;9.90;99.90
43524;DHT22;29120;52.006;6.020;2023-04-01T19:30:51;9.80;99.90
43524;DHT22;29120;52.006;6.020;2023-04-01T19:46:48;9.50;99.90
43524;DHT22;29120;52.006;6.020;2023-04-01T19:51:47;9.40;99.90
43524;DHT22;29120;52.006;6.020;2023-04-01T19:54:17;9.40;99.90
43524;DHT22;29120;52.006;6.020;2023-04-01T19:59:16;9.30;99.90
43524;DHT22;29120;52.006;6.020;2023-04-01T20:01:46;9.30;99.90
43524;DHT22;29120;52.006;6.020;2023-04-01T20:04:25;9.30;99.90
43524;DHT22;29120;52.006;6.020;2023-04-01T20:09:30;9.20;99.90
43524;DHT22;29120;52.006;6.020;2023-04-01T20:12:13;9.20;99.90
43524;DHT22;29120;52.006;6.020;2023-04-01T20:14:45;9.20;99.90
43524;DHT22;29120;52.006;6.020;2023-04-01T20:17:45;9.20;99.90
43524;DHT22;29120;52.006;6.020;2023-04-01T20:27:58;9.10;99.90
43524;DHT22;29120;52.006;6.020;2023-04-01T20:40:51;9.00;99.90
43524;DHT22;29120;52.006;6.020;2023-04-01T20:48:37;9.00;99.90
43524;DHT22;29120;52.006;6.020;2023-04-01T20:51:12;9.00;99.90
43524;DHT22;29120;52.006;6.020;2023-04-01T20:53:54;9.00;99.90
43524;DHT22;29120;52.006;6.020;2023-04-01T20:56:27;8.90;99.90
43524;DHT22;29120;52.006;6.020;2023-04-01T21:01:44;8.80;99.90
43524;DHT22;29120;52.006;6.020;2023-04-01T21:23:04;8.60;99.90
43524;DHT22;29120;52.006;6.020;2023-04-01T21:28:06;8.50;99.90
43524;DHT22;29120;52.006;6.020;2023-04-01T21:33:14;8.50;99.90
43524;DHT22;29120;52.006;6.020;2023-04-01T21:41:30;8.40;99.90
43524;DHT22;29120;52.006;6.020;2023-04-01T21:47:01;8.40;99.90
43524;DHT22;29120;52.006;6.020;2023-04-01T21:52:30;8.30;99.90
43524;DHT22;29120;52.006;6.020;2023-04-01T22:00:25;8.20;99.90
43524;DHT22;29120;52.006;6.020;2023-04-01T22:05:36;8.10;99.90
43524;DHT22;29120;52.006;6.020;2023-04-01T22:10:56;8.20;99.90
43524;DHT22;29120;52.006;6.020;2023-04-01T22:14:08;8.20;99.90
43524;DHT22;29120;52.006;6.020;2023-04-01T22:18:49;8.10;99.90
43524;DHT22;29120;52.006;6.020;2023-04-01T22:21:18;8.10;99.90
43524;DHT22;29120;52.006;6.020;2023-04-01T22:23:47;8.10;99.90
43524;DHT22;29120;52.006;6.020;2023-04-01T22:26:24;8.00;99.90
43524;DHT22;29120;52.006;6.020;2023-04-01T22:28:58;8.00;99.90
43524;DHT22;29120;52.006;6.020;2023-04-01T22:31:28;8.00;99.90
43524;DHT22;29120;52.006;6.020;2023-04-01T22:34:00;8.00;99.90
43524;DHT22;29120;52.006;6.020;2023-04-01T22:36:32;8.00;99.90
43524;DHT22;29120;52.006;6.020;2023-04-01T22:39:10;8.00;99.90
43524;DHT22;29120;52.006;6.020;2023-04-01T22:44:27;8.00;99.90
43524;DHT22;29120;52.006;6.020;2023-04-01T22:47:07;8.00;99.90
43524;DHT22;29120;52.006;6.020;2023-04-01T22:54:50;7.80;99.90
43524;DHT22;29120;52.006;6.020;2023-04-01T22:59:57;7.70;99.90
43524;DHT22;29120;52.006;6.020;2023-04-01T23:02:25;7.70;99.90
43524;DHT22;29120;52.006;6.020;2023-04-01T23:04:54;7.70;99.90
43524;DHT22;29120;52.006;6.020;2023-04-01T23:07:28;7.70;99.90
43524;DHT22;29120;52.006;6.020;2023-04-01T23:09:55;7.70;99.90
43524;DHT22;29120;52.006;6.020;2023-04-01T23:12:22;7.70;99.90
43524;DHT22;29120;52.006;6.020;2023-04-01T23:14:52;7.70;99.90
43524;DHT22;29120;52.006;6.020;2023-04-01T23:17:22;7.60;99.90
43524;DHT22;29120;52.006;6.020;2023-04-01T23:35:50;7.70;99.90
43524;DHT22;29120;52.006;6.020;2023-04-01T23:38:16;7.70;99.90
43524;DHT22;29120;52.006;6.020;2023-04-01T23:40:42;7.70;99.90
43524;DHT22;29120;52.006;6.020;2023-04-01T23:43:14;7.60;99.90
43524;DHT22;29120;52.006;6.020;2023-04-01T23:45:43;7.60;99.90
43524;DHT22;29120;52.006;6.020;2023-04-01T23:48:11;7.60;99.90
43524;DHT22;29120;52.006;6.020;2023-04-01T23:50:38;7.60;99.90
43524;DHT22;29120;52.006;6.020;2023-04-01T23:53:14;7.50;99.90
43524;DHT22;29120;52.006;6.020;2023-04-01T23:55:41;7.50;99.90
